Time;durP1;ratioP1;P1;durP2;ratioP2;P2;SDS_P1;SDS_P2;PMS_P1;PMS_P2;Temp;Humidity;BMP_temperature;BMP_pressure;BME280_temperature;BME280_humidity;BME280_pressure;Samples;Min_cycle;Max_cycle;Signal;HPM_P1;HPM_P2
2020/12/03 00:00:52;;;;;;;34.43;15.23;;;;;;;;;;5068936;28;20021;-81
2020/12/03 00:03:25;;;;;;;34.33;14.83;;;;;;;;;;5072241;28;20099;-81
2020/12/03 00:05:58;;;;;;;40.53;14.93;;;;;;;;;;5073164;28;20019;-81
2020/12/03 00:08:23;;;;;;;34.13;14.53;;;;;;;;;;5062160;28;20029;-81
2020/12/03 00:10:49;;;;;;;38.63;15.73;;;;;;;;;;5073780;28;20028;-80
2020/12/03 00:13:16;;;;;;;31.63;13.93;;;;;;;;;;5075188;28;20013;-81
2020/12/03 00:15:42;;;;;;;34.90;14.63;;;;;;;;;;5073898;28;20024;-81
2020/12/03 00:18:07;;;;;;;31.73;14.33;;;;;;;;;;5075170;28;20028;-81
2020/12/03 00:20:33;;;;;;;37.17;14.20;;;;;;;;;;5073866;28;20042;-81
2020/12/03 00:22:58;;;;;;;37.90;14.07;;;;;;;;;;5072752;28;20017;-81
2020/12/03 00:25:23;;;;;;;32.80;14.43;;;;;;;;;;5073122;28;20100;-81
2020/12/03 00:27:50;;;;;;;31.87;12.93;;;;;;;;;;5073149;28;20456;-81
2020/12/03 00:30:15;;;;;;;37.17;13.57;;;;;;;;;;5074627;28;20047;-81
2020/12/03 00:32:41;;;;;;;44.63;15.87;;;;;;;;;;5067442;28;20020;-80
2020/12/03 00:35:06;;;;;;;39.33;13.60;;;;;;;;;;5066447;28;20028;-81
2020/12/03 00:37:31;;;;;;;31.33;13.07;;;;;;;;;;5073578;28;20025;-81
2020/12/03 00:39:59;;;;;;;36.93;12.83;;;;;;;;;;5061064;28;20021;-81
2020/12/03 00:42:24;;;;;;;36.80;13.20;;;;;;;;;;5060975;28;20059;-81
2020/12/03 00:44:50;;;;;;;34.73;12.70;;;;;;;;;;5072871;28;20044;-81
2020/12/03 00:47:15;;;;;;;32.93;13.07;;;;;;;;;;5073574;28;20055;-80
2020/12/03 00:49:40;;;;;;;34.80;13.40;;;;;;;;;;5074450;28;20012;-80
2020/12/03 00:52:05;;;;;;;31.83;13.00;;;;;;;;;;5073146;28;20024;-81
2020/12/03 00:54:30;;;;;;;35.30;13.70;;;;;;;;;;5073344;28;20028;-81
2020/12/03 00:56:55;;;;;;;36.50;13.47;;;;;;;;;;5074898;28;20021;-81
2020/12/03 00:59:21;;;;;;;41.30;14.37;;;;;;;;;;5073540;28;20025;-81
2020/12/03 01:01:46;;;;;;;38.37;14.33;;;;;;;;;;5062603;28;20028;-81
2020/12/03 01:04:11;;;;;;;38.13;14.43;;;;;;;;;;5067404;28;20104;-81
2020/12/03 01:06:36;;;;;;;36.60;13.87;;;;;;;;;;5058448;28;20472;-81
2020/12/03 01:09:02;;;;;;;35.50;14.20;;;;;;;;;;5073009;28;20017;-81
2020/12/03 01:11:27;;;;;;;35.27;13.50;;;;;;;;;;5071188;28;20027;-81
2020/12/03 01:13:52;;;;;;;35.97;13.13;;;;;;;;;;5064546;28;20025;-81
2020/12/03 01:16:18;;;;;;;49.10;15.13;;;;;;;;;;5073337;28;20036;-81
2020/12/03 01:18:44;;;;;;;52.87;16.77;;;;;;;;;;5073379;28;20028;-80
2020/12/03 01:21:09;;;;;;;42.50;15.80;;;;;;;;;;5074591;28;20027;-81
2020/12/03 01:23:34;;;;;;;41.20;14.80;;;;;;;;;;5073019;28;20020;-80
2020/12/03 01:25:59;;;;;;;40.77;13.63;;;;;;;;;;5074737;28;20092;-81
2020/12/03 01:28:25;;;;;;;38.83;15.30;;;;;;;;;;5073361;28;20063;-81
2020/12/03 01:30:50;;;;;;;37.83;13.90;;;;;;;;;;5074504;28;20031;-81
2020/12/03 01:33:15;;;;;;;38.27;14.17;;;;;;;;;;5073240;28;20499;-81
2020/12/03 01:35:40;;;;;;;41.10;14.13;;;;;;;;;;5064965;28;20073;-81
2020/12/03 01:38:05;;;;;;;32.33;12.83;;;;;;;;;;5072793;28;20095;-81
2020/12/03 01:40:30;;;;;;;37.60;12.63;;;;;;;;;;5074116;28;20017;-81
2020/12/03 01:42:56;;;;;;;39.47;13.73;;;;;;;;;;5072435;28;20021;-81
2020/12/03 01:45:39;;;;;;;44.20;13.60;;;;;;;;;;5074301;28;20495;-81
2020/12/03 01:48:05;;;;;;;32.97;13.10;;;;;;;;;;5072814;28;20020;-80
2020/12/03 01:50:30;;;;;;;33.60;12.40;;;;;;;;;;5073020;28;20368;-81
2020/12/03 01:52:55;;;;;;;36.37;12.53;;;;;;;;;;5072224;28;20051;-81
2020/12/03 01:55:20;;;;;;;34.53;11.53;;;;;;;;;;5072703;28;20065;-81
2020/12/03 01:57:45;;;;;;;33.53;12.47;;;;;;;;;;5072864;28;20024;-80
2020/12/03 02:00:13;;;;;;;29.90;10.93;;;;;;;;;;5073652;28;20028;-81
2020/12/03 02:02:40;;;;;;;29.30;11.13;;;;;;;;;;5074002;28;20078;-81
2020/12/03 02:05:07;;;;;;;30.90;11.43;;;;;;;;;;5072387;28;20016;-81
2020/12/03 02:07:32;;;;;;;30.30;10.87;;;;;;;;;;5072807;28;20021;-81
2020/12/03 02:09:57;;;;;;;35.43;11.10;;;;;;;;;;5072341;28;20020;-81
2020/12/03 02:12:22;;;;;;;27.07;10.03;;;;;;;;;;5072500;28;20020;-81
2020/12/03 02:14:47;;;;;;;30.70;10.20;;;;;;;;;;5072173;28;20025;-80
2020/12/03 02:17:13;;;;;;;27.23;10.53;;;;;;;;;;5073379;28;20025;-81
2020/12/03 02:19:39;;;;;;;25.97;10.13;;;;;;;;;;5073443;28;20532;-81
2020/12/03 02:22:06;;;;;;;31.13;10.90;;;;;;;;;;5072154;28;20109;-81
2020/12/03 02:24:35;;;;;;;27.03;9.83;;;;;;;;;;5071898;28;20379;-81
2020/12/03 02:27:02;;;;;;;27.17;11.07;;;;;;;;;;5063760;28;20029;-80
2020/12/03 02:29:27;;;;;;;25.20;10.07;;;;;;;;;;5069988;28;20107;-81
2020/12/03 02:31:53;;;;;;;27.87;10.70;;;;;;;;;;5071916;28;20055;-81
2020/12/03 02:34:18;;;;;;;28.00;10.10;;;;;;;;;;5073139;28;20039;-81
2020/12/03 02:36:43;;;;;;;27.23;10.47;;;;;;;;;;5071562;28;20081;-80
2020/12/03 02:39:09;;;;;;;21.00;9.40;;;;;;;;;;5071846;28;20365;-81
2020/12/03 02:41:35;;;;;;;33.30;10.97;;;;;;;;;;5071959;28;20468;-81
2020/12/03 02:44:00;;;;;;;23.67;9.47;;;;;;;;;;5071773;28;20021;-81
2020/12/03 02:46:25;;;;;;;25.47;9.20;;;;;;;;;;5071746;28;20023;-81
2020/12/03 02:48:50;;;;;;;25.40;9.63;;;;;;;;;;5071883;28;20066;-80
2020/12/03 02:51:16;;;;;;;23.20;9.33;;;;;;;;;;5070895;28;20016;-81
2020/12/03 02:53:41;;;;;;;29.27;9.60;;;;;;;;;;5071390;28;20724;-81
2020/12/03 02:56:07;;;;;;;26.00;9.67;;;;;;;;;;5072984;28;20035;-81
2020/12/03 02:58:32;;;;;;;29.30;9.43;;;;;;;;;;5071325;28;20411;-81
2020/12/03 03:00:57;;;;;;;28.50;11.10;;;;;;;;;;5072629;28;20467;-81
2020/12/03 03:03:22;;;;;;;27.53;9.30;;;;;;;;;;5070487;28;20021;-80
2020/12/03 03:05:48;;;;;;;24.27;8.27;;;;;;;;;;5071085;28;20012;-81
2020/12/03 03:08:13;;;;;;;28.73;8.70;;;;;;;;;;5071055;28;20055;-81
2020/12/03 03:10:38;;;;;;;22.47;8.63;;;;;;;;;;5072616;28;20041;-80
2020/12/03 03:13:03;;;;;;;25.73;9.07;;;;;;;;;;5071566;28;20012;-81
2020/12/03 03:15:28;;;;;;;24.20;9.23;;;;;;;;;;5072196;28;20028;-81
2020/12/03 03:17:54;;;;;;;27.40;9.67;;;;;;;;;;5071376;28;20448;-81
2020/12/03 03:20:19;;;;;;;27.60;9.23;;;;;;;;;;5070767;28;20013;-81
2020/12/03 03:22:44;;;;;;;26.00;9.83;;;;;;;;;;5070312;28;20066;-81
2020/12/03 03:25:09;;;;;;;27.83;9.37;;;;;;;;;;5071132;28;20469;-80
2020/12/03 03:27:35;;;;;;;24.57;9.80;;;;;;;;;;5070911;28;20046;-81
2020/12/03 03:30:00;;;;;;;29.13;9.87;;;;;;;;;;5071392;28;20021;-81
2020/12/03 03:32:25;;;;;;;29.00;10.77;;;;;;;;;;5072258;28;20028;-81
2020/12/03 03:34:50;;;;;;;26.63;8.93;;;;;;;;;;5070598;28;20025;-80
2020/12/03 03:37:15;;;;;;;27.93;9.20;;;;;;;;;;5070938;28;20020;-80
2020/12/03 03:39:40;;;;;;;23.93;8.73;;;;;;;;;;5071445;28;20021;-81
2020/12/03 03:42:06;;;;;;;26.90;9.00;;;;;;;;;;5071057;28;20104;-80
2020/12/03 03:44:31;;;;;;;23.27;9.47;;;;;;;;;;5071731;28;20017;-80
2020/12/03 03:46:56;;;;;;;34.77;9.57;;;;;;;;;;5070240;28;20032;-81
2020/12/03 03:49:21;;;;;;;28.63;9.20;;;;;;;;;;5072282;28;20023;-80
2020/12/03 03:51:46;;;;;;;29.80;10.00;;;;;;;;;;5072306;28;20021;-81
2020/12/03 03:54:12;;;;;;;30.87;9.90;;;;;;;;;;5072228;28;20035;-81
2020/12/03 03:56:37;;;;;;;27.73;10.20;;;;;;;;;;5070649;28;20032;-81
2020/12/03 03:59:02;;;;;;;24.73;9.60;;;;;;;;;;5070908;28;20062;-81
2020/12/03 04:01:28;;;;;;;26.07;9.67;;;;;;;;;;5070799;28;20031;-81
2020/12/03 04:03:53;;;;;;;33.17;9.53;;;;;;;;;;5071008;28;20044;-80
2020/12/03 04:06:18;;;;;;;26.07;8.00;;;;;;;;;;5071865;28;20383;-80
2020/12/03 04:08:43;;;;;;;35.10;10.23;;;;;;;;;;5072085;28;20012;-81
2020/12/03 04:11:08;;;;;;;22.73;9.03;;;;;;;;;;5070687;28;20055;-80
2020/12/03 04:13:34;;;;;;;25.57;9.70;;;;;;;;;;5071830;28;20460;-80
2020/12/03 04:15:59;;;;;;;23.83;8.33;;;;;;;;;;5072572;28;20059;-80
2020/12/03 04:18:27;;;;;;;21.87;8.40;;;;;;;;;;5074650;28;20028;-80
2020/12/03 04:20:57;;;;;;;25.40;8.17;;;;;;;;;;5074136;28;20085;-80
2020/12/03 04:23:22;;;;;;;26.13;8.50;;;;;;;;;;5074543;28;20803;-80
2020/12/03 04:25:47;;;;;;;22.60;8.27;;;;;;;;;;5074112;28;20017;-81
2020/12/03 04:28:13;;;;;;;28.30;9.20;;;;;;;;;;5074197;28;20472;-80
2020/12/03 04:30:38;;;;;;;30.20;8.57;;;;;;;;;;5075220;28;20021;-80
2020/12/03 04:33:03;;;;;;;21.40;8.03;;;;;;;;;;5074151;28;20472;-81
2020/12/03 04:35:29;;;;;;;23.23;7.73;;;;;;;;;;5073805;28;20068;-81
2020/12/03 04:37:54;;;;;;;25.23;8.67;;;;;;;;;;5074029;28;20019;-81
2020/12/03 04:40:25;;;;;;;27.63;8.67;;;;;;;;;;5074966;28;20074;-81
2020/12/03 04:42:50;;;;;;;20.33;6.50;;;;;;;;;;5071164;28;20021;-80
2020/12/03 04:45:27;;;;;;;16.13;6.78;;;;;;;;;;5073686;28;20444;-81
2020/12/03 04:48:01;;;;;;;21.58;7.80;;;;;;;;;;5073595;28;20419;-81
2020/12/03 04:50:47;;;;;;;20.45;5.32;;;;;;;;;;5075420;28;20009;-81
2020/12/03 04:53:32;;;;;;;26.05;8.50;;;;;;;;;;5062671;28;20059;-81
2020/12/03 04:55:57;;;;;;;22.48;8.73;;;;;;;;;;5062321;28;20021;-81
2020/12/03 04:58:25;;;;;;;26.03;8.53;;;;;;;;;;5072079;28;20529;-81
2020/12/03 05:00:52;;;;;;;25.10;9.10;;;;;;;;;;5074889;28;20028;-80
2020/12/03 05:03:36;;;;;;;24.47;9.37;;;;;;;;;;5073595;28;20035;-80
2020/12/03 05:06:16;;;;;;;26.97;8.40;;;;;;;;;;5073553;28;20028;-81
2020/12/03 05:09:00;;;;;;;22.83;9.13;;;;;;;;;;5073054;28;20031;-80
2020/12/03 05:11:29;;;;;;;25.83;9.37;;;;;;;;;;5073357;28;20032;-80
2020/12/03 05:14:02;;;;;;;29.83;9.80;;;;;;;;;;5062821;28;20089;-80
2020/12/03 05:16:45;;;;;;;27.93;8.67;;;;;;;;;;5073544;28;20147;-80
2020/12/03 05:19:22;;;;;;;24.33;7.90;;;;;;;;;;5073597;28;20111;-81
2020/12/03 05:21:49;;;;;;;28.20;9.00;;;;;;;;;;5072877;28;20052;-81
2020/12/03 05:24:14;;;;;;;25.13;7.90;;;;;;;;;;5074369;28;20016;-81
2020/12/03 05:26:39;;;;;;;22.77;7.83;;;;;;;;;;5072478;28;20526;-81
2020/12/03 05:29:06;;;;;;;19.67;8.23;;;;;;;;;;5073268;28;20040;-80
2020/12/03 05:31:33;;;;;;;22.53;8.13;;;;;;;;;;5074213;28;20024;-81
2020/12/03 05:34:09;;;;;;;25.37;9.13;;;;;;;;;;5073838;28;20111;-80
2020/12/03 05:36:37;;;;;;;23.67;8.77;;;;;;;;;;5072383;28;20017;-80
2020/12/03 05:39:04;;;;;;;24.87;8.93;;;;;;;;;;5072268;28;20454;-80
2020/12/03 05:41:32;;;;;;;27.00;8.80;;;;;;;;;;5072927;28;20387;-81
2020/12/03 05:43:57;;;;;;;24.70;8.00;;;;;;;;;;5072598;28;20065;-80
2020/12/03 05:46:23;;;;;;;27.23;8.43;;;;;;;;;;5073895;28;20013;-81
2020/12/03 05:49:14;;;;;;;25.02;7.90;;;;;;;;;;5072700;28;20162;-81
2020/12/03 05:51:40;;;;;;;22.30;7.97;;;;;;;;;;5071505;28;20028;-80
2020/12/03 05:54:07;;;;;;;25.37;7.47;;;;;;;;;;5074304;28;20024;-81
2020/12/03 05:56:32;;;;;;;24.03;8.20;;;;;;;;;;5072551;28;20028;-80
2020/12/03 05:59:17;;;;;;;23.73;7.07;;;;;;;;;;5072619;28;20028;-81
2020/12/03 06:01:53;;;;;;;23.40;8.33;;;;;;;;;;5072203;28;20024;-80
2020/12/03 06:04:27;;;;;;;21.43;7.50;;;;;;;;;;5072807;28;20028;-81
2020/12/03 06:07:11;;;;;;;26.27;8.50;;;;;;;;;;5073571;28;20703;-80
2020/12/03 06:09:40;;;;;;;24.07;8.53;;;;;;;;;;5071846;28;20028;-80
2020/12/03 06:12:05;;;;;;;21.00;7.37;;;;;;;;;;5073594;28;20017;-80
2020/12/03 06:14:49;;;;;;;23.53;8.63;;;;;;;;;;5073724;28;20024;-80
2020/12/03 06:17:14;;;;;;;26.10;7.73;;;;;;;;;;5072219;28;20103;-81
2020/12/03 06:19:42;;;;;;;33.17;8.83;;;;;;;;;;5073451;28;20051;-81
2020/12/03 06:22:22;;;;;;;14.57;5.77;;;;;;;;;;5072062;28;20486;-80
2020/12/03 06:24:56;;;;;;;20.43;6.27;;;;;;;;;;5072346;28;20017;-81
2020/12/03 06:27:41;;;;;;;16.70;6.77;;;;;;;;;;5072168;28;20020;-80
2020/12/03 06:30:25;;;;;;;24.03;7.70;;;;;;;;;;5071463;28;20024;-80
2020/12/03 06:32:57;;;;;;;26.87;8.13;;;;;;;;;;5059364;28;20027;-80
2020/12/03 06:35:41;;;;;;;21.67;8.60;;;;;;;;;;5072205;28;20033;-81
2020/12/03 06:38:25;;;;;;;23.13;7.30;;;;;;;;;;5071080;28;20420;-81
2020/12/03 06:41:09;;;;;;;24.40;7.23;;;;;;;;;;5071591;28;20016;-80
2020/12/03 06:43:42;;;;;;;28.70;7.93;;;;;;;;;;5071645;28;20017;-80
2020/12/03 06:46:30;;;;;;;23.00;8.30;;;;;;;;;;5072957;28;20024;-80
2020/12/03 06:48:55;;;;;;;27.23;7.90;;;;;;;;;;5071162;28;20103;-80
2020/12/03 06:51:27;;;;;;;25.87;7.50;;;;;;;;;;5070354;28;20143;-80
2020/12/03 06:54:03;;;;;;;27.00;8.07;;;;;;;;;;5065104;28;20649;-81
2020/12/03 06:56:28;;;;;;;25.80;8.00;;;;;;;;;;5071812;28;20366;-80
2020/12/03 06:59:12;;;;;;;25.47;7.07;;;;;;;;;;5072511;28;20035;-80
2020/12/03 07:01:49;;;;;;;29.73;8.10;;;;;;;;;;5072373;28;20029;-80
2020/12/03 07:04:17;;;;;;;20.00;8.30;;;;;;;;;;5067807;28;20136;-80
2020/12/03 07:07:05;;;;;;;24.33;6.83;;;;;;;;;;5068181;28;20017;-80
2020/12/03 07:09:49;;;;;;;29.50;9.07;;;;;;;;;;5070173;28;20017;-81
2020/12/03 07:12:21;;;;;;;25.10;8.97;;;;;;;;;;5071276;28;20029;-80
2020/12/03 07:15:05;;;;;;;23.42;8.10;;;;;;;;;;5072068;28;20039;-79
2020/12/03 07:17:30;;;;;;;27.33;9.30;;;;;;;;;;5069853;28;20025;-80
2020/12/03 07:20:07;;;;;;;31.87;10.00;;;;;;;;;;5072894;28;20047;-80
2020/12/03 07:22:38;;;;;;;29.23;9.40;;;;;;;;;;5059212;28;20380;-80
2020/12/03 07:25:04;;;;;;;31.43;9.37;;;;;;;;;;5071204;28;20472;-80
2020/12/03 07:27:52;;;;;;;26.87;10.77;;;;;;;;;;5070685;28;20127;-80
2020/12/03 07:30:24;;;;;;;21.90;10.33;;;;;;;;;;5071415;28;20066;-80
2020/12/03 07:32:52;;;;;;;26.47;9.60;;;;;;;;;;5072071;28;20016;-80
2020/12/03 07:35:47;;;;;;;29.83;11.23;;;;;;;;;;5071014;28;20059;-80
2020/12/03 07:38:28;;;;;;;27.17;10.30;;;;;;;;;;5050708;28;20067;-79
2020/12/03 07:40:53;;;;;;;22.93;8.30;;;;;;;;;;5080402;28;20025;-80
2020/12/03 07:43:33;;;;;;;25.33;9.40;;;;;;;;;;5070947;28;20043;-79
2020/12/03 07:45:59;;;;;;;26.63;9.93;;;;;;;;;;5071612;28;20091;-80
2020/12/03 07:48:30;;;;;;;37.47;11.50;;;;;;;;;;5070938;28;20103;-79
2020/12/03 07:51:01;;;;;;;23.60;9.73;;;;;;;;;;5073418;28;20100;-80
2020/12/03 07:53:27;;;;;;;28.90;11.33;;;;;;;;;;5075535;28;20365;-80
2020/12/03 07:55:52;;;;;;;33.33;10.17;;;;;;;;;;5074374;28;20054;-80
2020/12/03 07:58:33;;;;;;;32.50;11.70;;;;;;;;;;5074744;28;20028;-80
2020/12/03 08:00:59;;;;;;;35.20;13.57;;;;;;;;;;5080474;28;20384;-79
2020/12/03 08:03:47;;;;;;;26.90;11.17;;;;;;;;;;5074256;28;20012;-79
2020/12/03 08:06:13;;;;;;;29.03;11.50;;;;;;;;;;5065481;28;20032;-80
2020/12/03 08:08:40;;;;;;;25.43;11.33;;;;;;;;;;5075711;28;20460;-79
2020/12/03 08:11:25;;;;;;;32.60;12.90;;;;;;;;;;5075747;28;20017;-79
2020/12/03 08:13:54;;;;;;;30.40;10.37;;;;;;;;;;5081074;28;20052;-80
2020/12/03 08:16:38;;;;;;;28.07;11.70;;;;;;;;;;5075053;28;20036;-80
2020/12/03 08:19:15;;;;;;;36.80;12.90;;;;;;;;;;5075531;28;20016;-80
2020/12/03 08:21:42;;;;;;;27.20;12.17;;;;;;;;;;5087140;28;20061;-80
2020/12/03 08:24:25;;;;;;;26.63;11.50;;;;;;;;;;5074203;28;20116;-80
2020/12/03 08:27:17;;;;;;;29.50;11.43;;;;;;;;;;5075624;28;20012;-79
2020/12/03 08:29:42;;;;;;;29.00;10.07;;;;;;;;;;5071196;28;20052;-79
2020/12/03 08:32:07;;;;;;;23.80;10.90;;;;;;;;;;5072166;28;20020;-79
2020/12/03 08:34:33;;;;;;;24.47;10.20;;;;;;;;;;5073300;28;20031;-80
2020/12/03 08:36:59;;;;;;;22.57;9.70;;;;;;;;;;5081328;28;20024;-80
2020/12/03 08:39:24;;;;;;;29.83;11.40;;;;;;;;;;5075534;28;20038;-80
2020/12/03 08:41:50;;;;;;;25.27;10.30;;;;;;;;;;5075069;28;20479;-80
2020/12/03 08:44:15;;;;;;;23.07;11.50;;;;;;;;;;5079277;28;20031;-80
2020/12/03 08:46:41;;;;;;;28.57;10.30;;;;;;;;;;5074785;28;20016;-80
2020/12/03 08:49:10;;;;;;;20.27;10.73;;;;;;;;;;5074821;28;20050;-79
2020/12/03 08:51:37;;;;;;;24.17;10.23;;;;;;;;;;5074421;28;20028;-80
2020/12/03 08:54:02;;;;;;;24.13;10.23;;;;;;;;;;5073596;28;20591;-79
2020/12/03 08:56:47;;;;;;;22.03;10.37;;;;;;;;;;5073496;28;20107;-79
2020/12/03 08:59:17;;;;;;;25.37;12.13;;;;;;;;;;5074242;28;20430;-80
2020/12/03 09:02:00;;;;;;;27.63;11.00;;;;;;;;;;5072377;28;20590;-80
2020/12/03 09:04:26;;;;;;;22.60;11.15;;;;;;;;;;5074526;28;20021;-80
2020/12/03 09:06:53;;;;;;;24.17;10.90;;;;;;;;;;5072878;28;20501;-79
2020/12/03 09:09:19;;;;;;;21.93;9.40;;;;;;;;;;5072605;28;20034;-80
2020/12/03 09:11:45;;;;;;;17.53;9.40;;;;;;;;;;5073392;28;20376;-80
2020/12/03 09:14:11;;;;;;;18.27;7.37;;;;;;;;;;5073505;28;20016;-80
2020/12/03 09:16:36;;;;;;;19.10;8.63;;;;;;;;;;5074331;28;20025;-80
2020/12/03 09:19:02;;;;;;;22.15;9.38;;;;;;;;;;5074783;28;20021;-80
2020/12/03 09:21:28;;;;;;;13.98;5.28;;;;;;;;;;5073206;28;20051;-80
2020/12/03 09:23:55;;;;;;;16.73;7.47;;;;;;;;;;5072632;28;20028;-80
2020/12/03 09:26:25;;;;;;;12.75;6.95;;;;;;;;;;5073215;28;20020;-80
2020/12/03 09:28:50;;;;;;;12.07;4.97;;;;;;;;;;5080403;28;20070;-80
2020/12/03 09:31:17;;;;;;;14.73;7.78;;;;;;;;;;5079385;28;20020;-80
2020/12/03 09:33:43;;;;;;;13.93;5.82;;;;;;;;;;5089345;28;20016;-80
2020/12/03 09:36:10;;;;;;;18.33;8.18;;;;;;;;;;5072713;28;20013;-80
2020/12/03 09:38:35;;;;;;;14.75;7.40;;;;;;;;;;5072327;28;20028;-80
2020/12/03 09:41:00;;;;;;;18.40;8.00;;;;;;;;;;5081287;28;20528;-79
2020/12/03 09:43:26;;;;;;;15.18;7.30;;;;;;;;;;5072727;28;20617;-80
2020/12/03 09:45:54;;;;;;;12.02;6.47;;;;;;;;;;5074260;28;20039;-81
2020/12/03 09:48:20;;;;;;;15.82;5.85;;;;;;;;;;5072227;28;20017;-80
2020/12/03 09:50:46;;;;;;;10.43;5.90;;;;;;;;;;5072383;28;20498;-81
2020/12/03 09:53:16;;;;;;;15.27;5.88;;;;;;;;;;5077536;28;20551;-80
2020/12/03 09:55:41;;;;;;;8.95;4.97;;;;;;;;;;5078825;28;20067;-81
2020/12/03 09:58:07;;;;;;;10.15;6.00;;;;;;;;;;5084175;28;20052;-80
2020/12/03 10:00:33;;;;;;;11.07;6.07;;;;;;;;;;5081390;28;20021;-81
2020/12/03 10:02:58;;;;;;;10.82;5.70;;;;;;;;;;5072259;28;20392;-80
2020/12/03 10:05:32;;;;;;;15.45;6.68;;;;;;;;;;5073517;28;20020;-80
2020/12/03 10:08:03;;;;;;;14.20;6.32;;;;;;;;;;5072620;28;20020;-80
2020/12/03 10:10:51;;;;;;;11.70;6.47;;;;;;;;;;5072954;28;20012;-79
2020/12/03 10:13:39;;;;;;;12.57;6.28;;;;;;;;;;5072279;28;20802;-79
2020/12/03 10:16:07;;;;;;;10.10;6.17;;;;;;;;;;5070116;28;20032;-80
2020/12/03 10:18:52;;;;;;;10.63;6.40;;;;;;;;;;5079006;28;20460;-80
2020/12/03 10:21:21;;;;;;;10.15;5.60;;;;;;;;;;5080084;28;20482;-80
2020/12/03 10:23:57;;;;;;;9.30;4.83;;;;;;;;;;5075132;28;20021;-81
2020/12/03 10:26:32;;;;;;;11.33;5.93;;;;;;;;;;5073253;28;20648;-81
2020/12/03 10:29:12;;;;;;;10.83;5.57;;;;;;;;;;5072717;28;20435;-81
2020/12/03 10:31:37;;;;;;;11.20;5.60;;;;;;;;;;5061923;28;20036;-81
2020/12/03 10:34:03;;;;;;;10.40;4.70;;;;;;;;;;5058736;28;20486;-81
2020/12/03 10:36:36;;;;;;;10.83;5.70;;;;;;;;;;5071547;28;20112;-81
2020/12/03 10:39:03;;;;;;;10.13;5.47;;;;;;;;;;5061940;28;20170;-81
2020/12/03 10:41:31;;;;;;;9.23;5.00;;;;;;;;;;5061434;28;20024;-81
2020/12/03 10:43:57;;;;;;;11.90;5.00;;;;;;;;;;5067128;28;20020;-81
2020/12/03 10:46:24;;;;;;;11.37;4.83;;;;;;;;;;5070959;28;20802;-81
2020/12/03 10:48:51;;;;;;;8.00;4.17;;;;;;;;;;5071167;28;20416;-82
2020/12/03 10:51:17;;;;;;;9.13;3.80;;;;;;;;;;5077069;28;20044;-82
2020/12/03 10:53:47;;;;;;;9.60;4.72;;;;;;;;;;5071392;28;20031;-82
2020/12/03 10:56:14;;;;;;;10.40;4.03;;;;;;;;;;5074028;28;20416;-82
2020/12/03 10:58:43;;;;;;;7.97;4.77;;;;;;;;;;5073132;28;20464;-81
2020/12/03 11:01:13;;;;;;;13.43;4.90;;;;;;;;;;5085799;28;20024;-82
2020/12/03 11:03:39;;;;;;;10.10;5.10;;;;;;;;;;5072142;28;20020;-82
2020/12/03 11:06:06;;;;;;;11.43;5.50;;;;;;;;;;5073743;28;20020;-82
2020/12/03 11:08:36;;;;;;;8.00;4.47;;;;;;;;;;5071418;28;20020;-82
2020/12/03 11:11:02;;;;;;;8.23;3.60;;;;;;;;;;5075728;28;20017;-82
2020/12/03 11:13:27;;;;;;;6.73;3.03;;;;;;;;;;5069466;28;20081;-82
2020/12/03 11:15:55;;;;;;;8.43;3.70;;;;;;;;;;5073364;28;20477;-83
2020/12/03 11:18:21;;;;;;;7.70;4.23;;;;;;;;;;5071252;28;20016;-82
2020/12/03 11:20:51;;;;;;;7.83;4.50;;;;;;;;;;5076851;28;20024;-83
2020/12/03 11:23:20;;;;;;;8.07;3.53;;;;;;;;;;5078885;28;20025;-82
2020/12/03 11:25:46;;;;;;;7.37;4.33;;;;;;;;;;5073729;28;20030;-82
2020/12/03 11:28:23;;;;;;;8.10;4.33;;;;;;;;;;5079662;28;20490;-82
2020/12/03 11:30:55;;;;;;;9.00;3.47;;;;;;;;;;5070932;28;20027;-82
2020/12/03 11:33:25;;;;;;;8.10;3.20;;;;;;;;;;5071107;28;20475;-82
2020/12/03 11:35:50;;;;;;;6.18;2.88;;;;;;;;;;5072128;28;20541;-82
2020/12/03 11:38:16;;;;;;;5.50;2.42;;;;;;;;;;5071294;28;20039;-83
2020/12/03 11:40:52;;;;;;;7.43;3.65;;;;;;;;;;5083357;28;20018;-82
2020/12/03 11:46:29;;;;;;;5.32;3.13;;;;;;;;;;5071761;28;20032;-83
2020/12/03 11:48:54;;;;;;;4.75;3.03;;;;;;;;;;5061787;28;20521;-83
2020/12/03 11:51:26;;;;;;;7.88;3.70;;;;;;;;;;5072029;28;20392;-83
2020/12/03 11:53:55;;;;;;;7.55;3.35;;;;;;;;;;5071107;28;20368;-82
2020/12/03 11:56:20;;;;;;;6.85;2.70;;;;;;;;;;5078512;28;20138;-83
2020/12/03 11:58:45;;;;;;;5.50;2.35;;;;;;;;;;5072512;28;20819;-82
2020/12/03 12:01:13;;;;;;;4.10;2.28;;;;;;;;;;5073461;28;20031;-83
2020/12/03 12:03:42;;;;;;;6.60;2.88;;;;;;;;;;5071901;28;20021;-83
2020/12/03 12:06:36;;;;;;;5.57;3.00;;;;;;;;;;5074618;28;20021;-82
2020/12/03 12:09:08;;;;;;;7.57;3.20;;;;;;;;;;5068759;28;20040;-83
2020/12/03 12:11:38;;;;;;;4.90;2.50;;;;;;;;;;5072995;28;20050;-83
2020/12/03 12:14:03;;;;;;;4.60;2.75;;;;;;;;;;5082918;28;20103;-83
2020/12/03 12:16:28;;;;;;;4.38;2.67;;;;;;;;;;5080121;28;20104;-83
2020/12/03 12:18:55;;;;;;;7.00;3.47;;;;;;;;;;5072981;28;20066;-82
2020/12/03 12:21:20;;;;;;;4.43;1.98;;;;;;;;;;5071060;28;20031;-83
2020/12/03 12:23:45;;;;;;;6.78;2.85;;;;;;;;;;5070347;28;20468;-83
2020/12/03 12:26:10;;;;;;;6.40;2.42;;;;;;;;;;5070847;28;20023;-83
2020/12/03 12:28:36;;;;;;;2.95;1.48;;;;;;;;;;5069343;28;20029;-83
2020/12/03 12:31:01;;;;;;;4.78;2.60;;;;;;;;;;5070126;28;20017;-83
2020/12/03 12:33:26;;;;;;;10.57;2.58;;;;;;;;;;5072359;28;20032;-83
2020/12/03 12:35:51;;;;;;;6.63;2.83;;;;;;;;;;5078975;28;20021;-83
2020/12/03 12:38:16;;;;;;;5.05;2.88;;;;;;;;;;5072616;28;20039;-83
2020/12/03 12:40:42;;;;;;;4.65;2.38;;;;;;;;;;5080636;28;20460;-83
2020/12/03 12:43:07;;;;;;;7.03;2.67;;;;;;;;;;5077428;28;20662;-82
2020/12/03 12:45:32;;;;;;;6.18;2.78;;;;;;;;;;5074875;28;20012;-82
2020/12/03 12:47:57;;;;;;;5.32;2.60;;;;;;;;;;5073629;28;20024;-82
2020/12/03 12:50:23;;;;;;;7.38;2.50;;;;;;;;;;5081684;28;20016;-83
2020/12/03 12:52:48;;;;;;;5.45;2.63;;;;;;;;;;5081990;28;20345;-82
2020/12/03 12:55:14;;;;;;;5.10;2.22;;;;;;;;;;5073792;28;20662;-82
2020/12/03 12:57:39;;;;;;;4.03;2.13;;;;;;;;;;5083738;28;20024;-82
2020/12/03 13:00:04;;;;;;;4.25;2.00;;;;;;;;;;5077080;28;20048;-82
2020/12/03 13:02:30;;;;;;;4.75;2.20;;;;;;;;;;5074891;28;20380;-82
2020/12/03 13:04:55;;;;;;;3.83;2.33;;;;;;;;;;5072121;28;20349;-82
2020/12/03 13:07:20;;;;;;;7.20;2.35;;;;;;;;;;5061050;28;20028;-83
2020/12/03 13:09:45;;;;;;;5.78;2.30;;;;;;;;;;5077693;28;20016;-82
2020/12/03 13:12:10;;;;;;;4.68;1.90;;;;;;;;;;5074573;28;20028;-82
2020/12/03 13:14:36;;;;;;;6.13;2.17;;;;;;;;;;5074495;28;20024;-82
2020/12/03 13:17:01;;;;;;;3.95;2.58;;;;;;;;;;5073587;28;20111;-82
2020/12/03 13:19:28;;;;;;;3.90;1.90;;;;;;;;;;5079027;28;20021;-82
2020/12/03 13:21:53;;;;;;;4.77;1.70;;;;;;;;;;5073453;28;20032;-82
2020/12/03 13:24:18;;;;;;;3.13;1.85;;;;;;;;;;5073085;28;20020;-82
2020/12/03 13:26:44;;;;;;;4.20;1.65;;;;;;;;;;5073414;28;20031;-82
2020/12/03 13:29:09;;;;;;;0.68;0.52;;;;;;;;;;5081156;28;20012;-82
2020/12/03 13:31:34;;;;;;;2.78;1.77;;;;;;;;;;5074500;28;20023;-82
2020/12/03 13:34:00;;;;;;;1.95;1.10;;;;;;;;;;5074282;28;20020;-82
2020/12/03 13:36:25;;;;;;;3.13;1.80;;;;;;;;;;5074470;28;20016;-82
2020/12/03 13:38:51;;;;;;;2.97;1.48;;;;;;;;;;5075026;28;20016;-83
2020/12/03 13:41:16;;;;;;;3.17;1.60;;;;;;;;;;5074185;28;20035;-82
2020/12/03 13:43:42;;;;;;;4.93;1.48;;;;;;;;;;5072784;28;20027;-82
2020/12/03 13:46:07;;;;;;;1.92;1.30;;;;;;;;;;5074204;28;20016;-82
2020/12/03 13:48:32;;;;;;;7.35;1.33;;;;;;;;;;5084727;28;20047;-82
2020/12/03 13:50:57;;;;;;;2.40;1.55;;;;;;;;;;5072753;28;20113;-82
2020/12/03 13:53:22;;;;;;;4.40;1.08;;;;;;;;;;5076583;28;20028;-82
2020/12/03 13:55:48;;;;;;;4.68;1.73;;;;;;;;;;5075994;28;20437;-81
2020/12/03 13:58:13;;;;;;;3.28;1.00;;;;;;;;;;5077500;28;20016;-82
2020/12/03 14:00:38;;;;;;;2.38;1.30;;;;;;;;;;5072125;28;20074;-82
2020/12/03 14:03:03;;;;;;;1.88;0.82;;;;;;;;;;5072700;28;20047;-82
2020/12/03 14:05:28;;;;;;;2.22;0.90;;;;;;;;;;5072340;28;20016;-82
2020/12/03 14:07:54;;;;;;;2.15;0.90;;;;;;;;;;5077677;28;20078;-83
2020/12/03 14:10:19;;;;;;;2.35;1.10;;;;;;;;;;5073346;28;20043;-82
2020/12/03 14:12:44;;;;;;;1.80;1.00;;;;;;;;;;5071537;28;20468;-82
2020/12/03 14:15:10;;;;;;;0.77;0.38;;;;;;;;;;5072915;28;20067;-83
2020/12/03 14:17:35;;;;;;;2.30;1.00;;;;;;;;;;5075292;28;20059;-83
2020/12/03 14:20:00;;;;;;;3.30;1.27;;;;;;;;;;5076086;28;20406;-83
2020/12/03 14:22:25;;;;;;;3.00;1.20;;;;;;;;;;5071797;28;20017;-83
2020/12/03 14:24:51;;;;;;;3.72;1.40;;;;;;;;;;5071940;28;20034;-83
2020/12/03 14:27:16;;;;;;;2.63;0.88;;;;;;;;;;5073228;28;20717;-84
2020/12/03 14:29:42;;;;;;;0.98;0.63;;;;;;;;;;5069768;28;20163;-84
2020/12/03 14:32:07;;;;;;;2.05;0.70;;;;;;;;;;5063384;28;20437;-83
2020/12/03 14:34:33;;;;;;;2.17;0.90;;;;;;;;;;5071667;28;20020;-83
2020/12/03 14:36:58;;;;;;;2.20;0.90;;;;;;;;;;5073196;28;20040;-84
2020/12/03 14:39:23;;;;;;;1.45;1.02;;;;;;;;;;5071444;28;20389;-82